sensor_id;sensor_type;location;lat;lon;timestamp;pressure;altitude;pressure_sealevel;temperature;humidity
31088;BME280;17745;55.914;37.554;2023-03-14T00:00:06;98787.19;;;-0.21;53.11
31088;BME280;17745;55.914;37.554;2023-03-14T00:02:38;98781.41;;;-0.16;53.12
31088;BME280;17745;55.914;37.554;2023-03-14T00:05:09;98781.84;;;-0.12;53.12
31088;BME280;17745;55.914;37.554;2023-03-14T00:07:37;98778.06;;;-0.10;53.09
31088;BME280;17745;55.914;37.554;2023-03-14T00:10:07;98770.88;;;-0.08;53.08
31088;BME280;17745;55.914;37.554;2023-03-14T00:12:35;98750.25;;;-0.03;53.03
31088;BME280;17745;55.914;37.554;2023-03-14T00:15:03;98753.47;;;-0.01;53.02
31088;BME280;17745;55.914;37.554;2023-03-14T00:17:33;98747.25;;;0.01;53.07
31088;BME280;17745;55.914;37.554;2023-03-14T00:20:00;98751.91;;;0.05;53.05
31088;BME280;17745;55.914;37.554;2023-03-14T00:22:36;98732.47;;;0.08;52.99
31088;BME280;17745;55.914;37.554;2023-03-14T00:25:05;98739.50;;;0.14;53.04
31088;BME280;17745;55.914;37.554;2023-03-14T00:27:32;98729.13;;;0.21;53.00
31088;BME280;17745;55.914;37.554;2023-03-14T00:30:00;98728.13;;;0.28;52.96
31088;BME280;17745;55.914;37.554;2023-03-14T00:32:30;98717.72;;;0.35;52.88
31088;BME280;17745;55.914;37.554;2023-03-14T00:34:58;98720.34;;;0.42;52.87
31088;BME280;17745;55.914;37.554;2023-03-14T00:37:27;98707.34;;;0.49;52.73
31088;BME280;17745;55.914;37.554;2023-03-14T00:39:56;98710.72;;;0.49;52.74
31088;BME280;17745;55.914;37.554;2023-03-14T00:42:24;98711.53;;;0.50;52.74
31088;BME280;17745;55.914;37.554;2023-03-14T00:44:52;98714.16;;;0.50;52.82
31088;BME280;17745;55.914;37.554;2023-03-14T00:47:19;98717.53;;;0.50;52.80
31088;BME280;17745;55.914;37.554;2023-03-14T00:49:47;98706.16;;;0.51;52.88
31088;BME280;17745;55.914;37.554;2023-03-14T00:52:15;98710.94;;;0.54;52.87
31088;BME280;17745;55.914;37.554;2023-03-14T00:54:43;98699.72;;;0.61;52.89
31088;BME280;17745;55.914;37.554;2023-03-14T00:57:12;98696.31;;;0.67;52.84
31088;BME280;17745;55.914;37.554;2023-03-14T00:59:42;98682.91;;;0.63;52.83
31088;BME280;17745;55.914;37.554;2023-03-14T01:02:09;98680.50;;;0.68;52.83
31088;BME280;17745;55.914;37.554;2023-03-14T01:04:37;98685.88;;;0.67;52.94
31088;BME280;17745;55.914;37.554;2023-03-14T01:07:05;98674.06;;;0.71;52.95
31088;BME280;17745;55.914;37.554;2023-03-14T01:09:33;98675.28;;;0.75;52.97
31088;BME280;17745;55.914;37.554;2023-03-14T01:12:01;98673.28;;;0.77;52.97
31088;BME280;17745;55.914;37.554;2023-03-14T01:14:31;98667.66;;;0.80;53.00
31088;BME280;17745;55.914;37.554;2023-03-14T01:16:58;98679.28;;;0.84;53.06
31088;BME280;17745;55.914;37.554;2023-03-14T01:19:27;98686.28;;;0.91;53.05
31088;BME280;17745;55.914;37.554;2023-03-14T01:21:55;98678.69;;;0.96;52.93
31088;BME280;17745;55.914;37.554;2023-03-14T01:24:23;98674.47;;;0.95;52.93
31088;BME280;17745;55.914;37.554;2023-03-14T01:26:50;98658.84;;;0.95;53.08
31088;BME280;17745;55.914;37.554;2023-03-14T01:29:18;98635.56;;;0.87;53.22
31088;BME280;17745;55.914;37.554;2023-03-14T01:31:47;98627.75;;;0.80;53.44
31088;BME280;17745;55.914;37.554;2023-03-14T01:34:15;98606.94;;;0.73;53.63
31088;BME280;17745;55.914;37.554;2023-03-14T01:36:43;98611.16;;;0.67;53.77
31088;BME280;17745;55.914;37.554;2023-03-14T01:39:11;98610.34;;;0.67;53.93
31088;BME280;17745;55.914;37.554;2023-03-14T01:41:39;98609.75;;;0.65;54.06
31088;BME280;17745;55.914;37.554;2023-03-14T01:44:09;98608.72;;;0.66;54.31
31088;BME280;17745;55.914;37.554;2023-03-14T01:46:39;98605.75;;;0.55;54.47
31088;BME280;17745;55.914;37.554;2023-03-14T01:49:26;98596.75;;;0.51;54.74
31088;BME280;17745;55.914;37.554;2023-03-14T01:51:59;98591.53;;;0.51;55.01
31088;BME280;17745;55.914;37.554;2023-03-14T01:54:32;98592.50;;;0.50;54.97
31088;BME280;17745;55.914;37.554;2023-03-14T01:57:05;98600.53;;;0.55;55.00
31088;BME280;17745;55.914;37.554;2023-03-14T01:59:34;98592.91;;;0.61;55.04
31088;BME280;17745;55.914;37.554;2023-03-14T02:02:05;98589.50;;;0.60;55.07
31088;BME280;17745;55.914;37.554;2023-03-14T02:04:36;98576.09;;;0.63;55.15
31088;BME280;17745;55.914;37.554;2023-03-14T02:07:09;98564.44;;;0.66;55.32
31088;BME280;17745;55.914;37.554;2023-03-14T02:09:41;98562.25;;;0.69;55.49
31088;BME280;17745;55.914;37.554;2023-03-14T02:12:12;98554.59;;;0.75;55.39
31088;BME280;17745;55.914;37.554;2023-03-14T02:14:42;98560.81;;;0.80;55.44
31088;BME280;17745;55.914;37.554;2023-03-14T02:17:15;98545.00;;;0.82;55.66
31088;BME280;17745;55.914;37.554;2023-03-14T02:20:03;98537.53;;;0.85;55.74
31088;BME280;17745;55.914;37.554;2023-03-14T02:22:36;98538.34;;;0.86;55.99
31088;BME280;17745;55.914;37.554;2023-03-14T02:25:08;98530.31;;;0.88;56.21
31088;BME280;17745;55.914;37.554;2023-03-14T02:27:49;98514.87;;;0.93;56.09
31088;BME280;17745;55.914;37.554;2023-03-14T02:30:19;98497.22;;;0.95;56.44
31088;BME280;17745;55.914;37.554;2023-03-14T02:32:51;98500.19;;;0.98;56.40
31088;BME280;17745;55.914;37.554;2023-03-14T02:35:23;98511.19;;;1.07;56.35
31088;BME280;17745;55.914;37.554;2023-03-14T02:37:55;98514.78;;;1.13;56.35
31088;BME280;17745;55.914;37.554;2023-03-14T02:40:25;98495.50;;;1.21;56.39
31088;BME280;17745;55.914;37.554;2023-03-14T02:42:54;98481.47;;;1.22;56.39
31088;BME280;17745;55.914;37.554;2023-03-14T02:45:36;98476.25;;;1.22;56.59
31088;BME280;17745;55.914;37.554;2023-03-14T02:48:09;98483.63;;;1.25;56.65
31088;BME280;17745;55.914;37.554;2023-03-14T02:50:39;98471.19;;;1.27;56.61
31088;BME280;17745;55.914;37.554;2023-03-14T02:53:07;98482.78;;;1.31;56.68
31088;BME280;17745;55.914;37.554;2023-03-14T02:55:37;98480.56;;;1.35;56.79
31088;BME280;17745;55.914;37.554;2023-03-14T02:58:10;98480.53;;;1.41;56.83
31088;BME280;17745;55.914;37.554;2023-03-14T03:00:37;98485.13;;;1.46;56.93
31088;BME280;17745;55.914;37.554;2023-03-14T03:03:06;98492.31;;;1.51;56.96
31088;BME280;17745;55.914;37.554;2023-03-14T03:05:33;98491.69;;;1.55;57.07
31088;BME280;17745;55.914;37.554;2023-03-14T03:08:02;98497.88;;;1.61;57.08
31088;BME280;17745;55.914;37.554;2023-03-14T03:10:30;98502.25;;;1.67;57.15
31088;BME280;17745;55.914;37.554;2023-03-14T03:12:58;98480.12;;;1.77;57.08
31088;BME280;17745;55.914;37.554;2023-03-14T03:15:29;98467.41;;;1.80;57.13
31088;BME280;17745;55.914;37.554;2023-03-14T03:17:58;98444.50;;;1.82;57.34
31088;BME280;17745;55.914;37.554;2023-03-14T03:20:28;98457.31;;;1.91;57.41
31088;BME280;17745;55.914;37.554;2023-03-14T03:22:55;98444.63;;;1.94;57.57
31088;BME280;17745;55.914;37.554;2023-03-14T03:25:26;98455.66;;;1.96;57.66
31088;BME280;17745;55.914;37.554;2023-03-14T03:27:54;98444.34;;;2.03;57.75
31088;BME280;17745;55.914;37.554;2023-03-14T03:30:25;98424.47;;;2.02;57.91
31088;BME280;17745;55.914;37.554;2023-03-14T03:32:55;98435.66;;;2.09;57.89
31088;BME280;17745;55.914;37.554;2023-03-14T03:35:23;98430.00;;;2.12;58.07
31088;BME280;17745;55.914;37.554;2023-03-14T03:37:54;98411.31;;;2.15;57.94
31088;BME280;17745;55.914;37.554;2023-03-14T03:40:21;98413.91;;;2.15;58.12
31088;BME280;17745;55.914;37.554;2023-03-14T03:42:50;98408.25;;;2.18;58.18
31088;BME280;17745;55.914;37.554;2023-03-14T03:45:18;98402.00;;;2.19;58.29
31088;BME280;17745;55.914;37.554;2023-03-14T03:47:48;98391.56;;;2.19;58.48
31088;BME280;17745;55.914;37.554;2023-03-14T03:50:17;98381.12;;;2.19;58.65
31088;BME280;17745;55.914;37.554;2023-03-14T03:52:45;98384.31;;;2.21;58.79
31088;BME280;17745;55.914;37.554;2023-03-14T03:55:12;98368.78;;;2.26;58.90
31088;BME280;17745;55.914;37.554;2023-03-14T03:57:40;98364.78;;;2.24;59.23
31088;BME280;17745;55.914;37.554;2023-03-14T04:00:10;98353.75;;;2.22;59.44
31088;BME280;17745;55.914;37.554;2023-03-14T04:02:57;98368.13;;;2.31;59.31
31088;BME280;17745;55.914;37.554;2023-03-14T04:05:29;98368.50;;;2.35;59.47
31088;BME280;17745;55.914;37.554;2023-03-14T04:07:57;98355.44;;;2.35;59.70
31088;BME280;17745;55.914;37.554;2023-03-14T04:10:34;98361.81;;;2.39;59.56
31088;BME280;17745;55.914;37.554;2023-03-14T04:13:03;98379.22;;;2.45;59.56
31088;BME280;17745;55.914;37.554;2023-03-14T04:15:31;98379.22;;;2.45;59.77
31088;BME280;17745;55.914;37.554;2023-03-14T04:18:02;98365.59;;;2.43;60.13
31088;BME280;17745;55.914;37.554;2023-03-14T04:20:35;98349.25;;;2.48;60.06
31088;BME280;17745;55.914;37.554;2023-03-14T04:23:04;98356.19;;;2.54;60.04
31088;BME280;17745;55.914;37.554;2023-03-14T04:25:32;98338.28;;;2.57;60.03
31088;BME280;17745;55.914;37.554;2023-03-14T04:28:03;98340.88;;;2.57;60.07
31088;BME280;17745;55.914;37.554;2023-03-14T04:30:31;98338.53;;;2.68;60.01
31088;BME280;17745;55.914;37.554;2023-03-14T04:33:00;98328.53;;;2.65;60.22
31088;BME280;17745;55.914;37.554;2023-03-14T04:35:30;98318.19;;;2.70;60.37
31088;BME280;17745;55.914;37.554;2023-03-14T04:38:10;98319.78;;;2.71;60.43
31088;BME280;17745;55.914;37.554;2023-03-14T04:41:12;98314.09;;;2.74;60.58
31088;BME280;17745;55.914;37.554;2023-03-14T04:43:40;98309.91;;;2.73;60.65
31088;BME280;17745;55.914;37.554;2023-03-14T04:46:08;98305.25;;;2.75;60.80
31088;BME280;17745;55.914;37.554;2023-03-14T04:48:35;98289.91;;;2.79;60.89
31088;BME280;17745;55.914;37.554;2023-03-14T04:51:05;98286.63;;;2.83;60.94
31088;BME280;17745;55.914;37.554;2023-03-14T04:53:34;98274.03;;;2.92;61.00
31088;BME280;17745;55.914;37.554;2023-03-14T04:56:04;98275.19;;;2.96;61.09
31088;BME280;17745;55.914;37.554;2023-03-14T04:58:33;98284.97;;;3.01;61.10
31088;BME280;17745;55.914;37.554;2023-03-14T05:01:05;98278.06;;;3.07;61.17
31088;BME280;17745;55.914;37.554;2023-03-14T05:03:33;98265.75;;;3.07;61.34
31088;BME280;17745;55.914;37.554;2023-03-14T05:06:08;98249.03;;;3.08;61.31
31088;BME280;17745;55.914;37.554;2023-03-14T05:08:37;98272.13;;;3.11;61.37
31088;BME280;17745;55.914;37.554;2023-03-14T05:11:05;98266.09;;;3.11;61.46
31088;BME280;17745;55.914;37.554;2023-03-14T05:13:33;98270.06;;;3.13;61.55
31088;BME280;17745;55.914;37.554;2023-03-14T05:16:06;98254.72;;;3.17;61.60
31088;BME280;17745;55.914;37.554;2023-03-14T05:18:39;98254.84;;;3.22;61.65
31088;BME280;17745;55.914;37.554;2023-03-14T05:21:08;98276.78;;;3.33;61.43
31088;BME280;17745;55.914;37.554;2023-03-14T05:23:37;98254.63;;;3.36;61.47
31088;BME280;17745;55.914;37.554;2023-03-14T05:26:06;98249.59;;;3.34;61.68
31088;BME280;17745;55.914;37.554;2023-03-14T05:28:35;98271.69;;;3.38;61.69
31088;BME280;17745;55.914;37.554;2023-03-14T05:31:06;98266.56;;;3.43;61.75
31088;BME280;17745;55.914;37.554;2023-03-14T05:33:35;98239.94;;;3.35;62.24
31088;BME280;17745;55.914;37.554;2023-03-14T05:36:07;98267.91;;;3.34;62.26
31088;BME280;17745;55.914;37.554;2023-03-14T05:38:41;98288.84;;;3.34;62.43
31088;BME280;17745;55.914;37.554;2023-03-14T05:41:09;98282.38;;;3.37;62.54
31088;BME280;17745;55.914;37.554;2023-03-14T05:43:37;98277.50;;;3.40;62.50
31088;BME280;17745;55.914;37.554;2023-03-14T05:46:06;98267.59;;;3.42;62.50
31088;BME280;17745;55.914;37.554;2023-03-14T05:48:37;98274.88;;;3.40;62.74
31088;BME280;17745;55.914;37.554;2023-03-14T05:51:05;98264.41;;;3.40;62.89
31088;BME280;17745;55.914;37.554;2023-03-14T05:53:34;98288.06;;;3.46;62.80
31088;BME280;17745;55.914;37.554;2023-03-14T05:56:14;98281.00;;;3.46;62.84
31088;BME280;17745;55.914;37.554;2023-03-14T05:58:45;98266.44;;;3.50;62.95
31088;BME280;17745;55.914;37.554;2023-03-14T06:01:13;98267.34;;;3.56;62.80
31088;BME280;17745;55.914;37.554;2023-03-14T06:03:42;98290.22;;;3.61;62.80
31088;BME280;17745;55.914;37.554;2023-03-14T06:06:10;98223.41;;;3.70;62.72
31088;BME280;17745;55.914;37.554;2023-03-14T06:08:38;98251.62;;;3.68;62.82
31088;BME280;17745;55.914;37.554;2023-03-14T06:11:06;98277.56;;;3.81;62.68
31088;BME280;17745;55.914;37.554;2023-03-14T06:13:36;98260.34;;;3.85;62.55
31088;BME280;17745;55.914;37.554;2023-03-14T06:16:04;98270.69;;;3.92;62.57
31088;BME280;17745;55.914;37.554;2023-03-14T06:18:34;98279.78;;;4.02;62.35
31088;BME280;17745;55.914;37.554;2023-03-14T06:21:02;98275.69;;;4.06;62.11
31088;BME280;17745;55.914;37.554;2023-03-14T06:23:29;98258.47;;;4.10;62.01
31088;BME280;17745;55.914;37.554;2023-03-14T06:25:58;98261.84;;;4.22;62.00
31088;BME280;17745;55.914;37.554;2023-03-14T06:28:27;98249.00;;;4.38;61.63
31088;BME280;17745;55.914;37.554;2023-03-14T06:30:59;98259.91;;;4.47;61.43
31088;BME280;17745;55.914;37.554;2023-03-14T06:33:28;98248.34;;;4.60;61.29
31088;BME280;17745;55.914;37.554;2023-03-14T06:35:56;98265.69;;;4.61;60.96
31088;BME280;17745;55.914;37.554;2023-03-14T06:38:23;98256.78;;;4.62;60.75
31088;BME280;17745;55.914;37.554;2023-03-14T06:40:52;98213.69;;;4.57;60.73
31088;BME280;17745;55.914;37.554;2023-03-14T06:43:20;98256.44;;;4.58;60.91
31088;BME280;17745;55.914;37.554;2023-03-14T06:45:47;98236.59;;;4.62;60.75
31088;BME280;17745;55.914;37.554;2023-03-14T06:48:17;98270.44;;;4.64;60.79
31088;BME280;17745;55.914;37.554;2023-03-14T06:50:45;98248.59;;;4.75;60.68
31088;BME280;17745;55.914;37.554;2023-03-14T06:53:12;98241.06;;;4.79;60.59
31088;BME280;17745;55.914;37.554;2023-03-14T06:55:43;98252.31;;;4.79;60.68
31088;BME280;17745;55.914;37.554;2023-03-14T06:58:12;98259.66;;;4.94;60.76
31088;BME280;17745;55.914;37.554;2023-03-14T07:00:41;98257.25;;;5.10;60.49
31088;BME280;17745;55.914;37.554;2023-03-14T07:03:10;98234.84;;;5.19;60.25
31088;BME280;17745;55.914;37.554;2023-03-14T07:05:41;98257.25;;;5.27;60.34
31088;BME280;17745;55.914;37.554;2023-03-14T07:08:09;98259.78;;;5.39;60.22
31088;BME280;17745;55.914;37.554;2023-03-14T07:10:37;98248.31;;;5.45;60.19
31088;BME280;17745;55.914;37.554;2023-03-14T07:13:09;98240.69;;;5.43;60.14
31088;BME280;17745;55.914;37.554;2023-03-14T07:15:42;98259.69;;;5.51;60.30
31088;BME280;17745;55.914;37.554;2023-03-14T07:18:11;98253.16;;;5.53;60.04
31088;BME280;17745;55.914;37.554;2023-03-14T07:20:40;98255.22;;;5.51;60.34
31088;BME280;17745;55.914;37.554;2023-03-14T07:23:09;98266.56;;;5.57;60.31
31088;BME280;17745;55.914;37.554;2023-03-14T07:25:36;98256.63;;;5.59;60.71
31088;BME280;17745;55.914;37.554;2023-03-14T07:28:07;98274.16;;;5.76;61.02
31088;BME280;17745;55.914;37.554;2023-03-14T07:30:37;98260.25;;;5.97;60.79
31088;BME280;17745;55.914;37.554;2023-03-14T07:33:21;98260.31;;;6.25;60.64
31088;BME280;17745;55.914;37.554;2023-03-14T07:35:56;98265.44;;;6.37;60.24
31088;BME280;17745;55.914;37.554;2023-03-14T07:38:34;98258.19;;;6.49;60.50
31088;BME280;17745;55.914;37.554;2023-03-14T07:41:05;98250.84;;;6.51;60.47
31088;BME280;17745;55.914;37.554;2023-03-14T07:43:33;98267.97;;;6.54;60.58
31088;BME280;17745;55.914;37.554;2023-03-14T07:46:01;98226.19;;;6.57;60.49
31088;BME280;17745;55.914;37.554;2023-03-14T07:48:31;98254.38;;;6.62;60.95
31088;BME280;17745;55.914;37.554;2023-03-14T07:51:05;98242.91;;;6.74;61.12
31088;BME280;17745;55.914;37.554;2023-03-14T07:53:37;98257.41;;;6.81;61.10
31088;BME280;17745;55.914;37.554;2023-03-14T07:56:08;98258.19;;;6.77;61.02
31088;BME280;17745;55.914;37.554;2023-03-14T07:58:40;98248.94;;;6.74;61.53
31088;BME280;17745;55.914;37.554;2023-03-14T08:01:16;98240.13;;;6.91;61.48
31088;BME280;17745;55.914;37.554;2023-03-14T08:04:12;98258.59;;;6.96;61.54
31088;BME280;17745;55.914;37.554;2023-03-14T08:06:46;98253.13;;;7.08;61.85
31088;BME280;17745;55.914;37.554;2023-03-14T08:09:16;98267.62;;;7.05;61.81
31088;BME280;17745;55.914;37.554;2023-03-14T08:11:52;98245.94;;;6.93;61.90
31088;BME280;17745;55.914;37.554;2023-03-14T08:14:21;98249.13;;;7.00;62.06
31088;BME280;17745;55.914;37.554;2023-03-14T08:16:52;98266.50;;;7.01;62.93
31088;BME280;17745;55.914;37.554;2023-03-14T08:19:25;98238.94;;;7.09;62.72
31088;BME280;17745;55.914;37.554;2023-03-14T08:21:57;98270.28;;;7.10;62.16
31088;BME280;17745;55.914;37.554;2023-03-14T08:24:29;98267.91;;;7.14;62.54
31088;BME280;17745;55.914;37.554;2023-03-14T08:26:56;98262.41;;;7.15;63.10
31088;BME280;17745;55.914;37.554;2023-03-14T08:29:26;98283.88;;;7.02;62.46
31088;BME280;17745;55.914;37.554;2023-03-14T08:31:59;98283.59;;;6.98;62.86
31088;BME280;17745;55.914;37.554;2023-03-14T08:34:28;98241.41;;;6.88;63.43
31088;BME280;17745;55.914;37.554;2023-03-14T08:36:57;98276.13;;;6.85;63.28
31088;BME280;17745;55.914;37.554;2023-03-14T08:39:26;98266.41;;;6.85;63.80
31088;BME280;17745;55.914;37.554;2023-03-14T08:41:59;98290.19;;;7.01;64.43
31088;BME280;17745;55.914;37.554;2023-03-14T08:44:32;98263.97;;;7.11;64.10
31088;BME280;17745;55.914;37.554;2023-03-14T08:47:06;98269.75;;;7.08;64.32
31088;BME280;17745;55.914;37.554;2023-03-14T08:49:34;98256.63;;;7.19;63.88
31088;BME280;17745;55.914;37.554;2023-03-14T08:52:03;98269.28;;;7.22;64.36
31088;BME280;17745;55.914;37.554;2023-03-14T08:54:32;98249.00;;;7.17;64.21
31088;BME280;17745;55.914;37.554;2023-03-14T08:57:02;98233.84;;;7.35;64.77
31088;BME280;17745;55.914;37.554;2023-03-14T08:59:29;98250.22;;;7.47;64.10
31088;BME280;17745;55.914;37.554;2023-03-14T09:01:57;98228.38;;;7.47;63.36
31088;BME280;17745;55.914;37.554;2023-03-14T09:04:25;98254.66;;;7.41;64.13
31088;BME280;17745;55.914;37.554;2023-03-14T09:06:55;98227.06;;;7.49;64.26
31088;BME280;17745;55.914;37.554;2023-03-14T09:09:34;98242.03;;;7.43;64.34
31088;BME280;17745;55.914;37.554;2023-03-14T09:12:06;98212.31;;;7.48;64.31
31088;BME280;17745;55.914;37.554;2023-03-14T09:14:37;98244.50;;;7.55;65.13
31088;BME280;17745;55.914;37.554;2023-03-14T09:17:04;98230.31;;;7.72;64.47
31088;BME280;17745;55.914;37.554;2023-03-14T09:19:34;98234.59;;;7.83;64.71
31088;BME280;17745;55.914;37.554;2023-03-14T09:22:03;98254.41;;;7.96;64.41
31088;BME280;17745;55.914;37.554;2023-03-14T09:24:32;98267.62;;;8.12;64.06
31088;BME280;17745;55.914;37.554;2023-03-14T09:27:03;98259.22;;;8.20;63.96
31088;BME280;17745;55.914;37.554;2023-03-14T09:29:31;98277.19;;;8.28;64.03
31088;BME280;17745;55.914;37.554;2023-03-14T09:31:59;98274.84;;;8.48;64.42
31088;BME280;17745;55.914;37.554;2023-03-14T09:34:28;98257.72;;;8.50;64.07
31088;BME280;17745;55.914;37.554;2023-03-14T09:36:55;98277.00;;;8.61;64.53
31088;BME280;17745;55.914;37.554;2023-03-14T09:39:23;98279.41;;;8.68;64.04
31088;BME280;17745;55.914;37.554;2023-03-14T09:41:55;98282.03;;;8.68;64.22
31088;BME280;17745;55.914;37.554;2023-03-14T09:44:26;98269.63;;;8.63;62.39
31088;BME280;17745;55.914;37.554;2023-03-14T09:46:57;98270.87;;;8.45;62.76
31088;BME280;17745;55.914;37.554;2023-03-14T09:49:30;98261.84;;;8.25;63.47
31088;BME280;17745;55.914;37.554;2023-03-14T09:52:02;98261.84;;;8.15;63.58
31088;BME280;17745;55.914;37.554;2023-03-14T09:54:35;98264.19;;;8.06;63.60
31088;BME280;17745;55.914;37.554;2023-03-14T09:57:06;98275.53;;;8.12;64.06
31088;BME280;17745;55.914;37.554;2023-03-14T09:59:39;98203.84;;;8.10;64.05
31088;BME280;17745;55.914;37.554;2023-03-14T10:02:14;98255.75;;;8.09;64.02
31088;BME280;17745;55.914;37.554;2023-03-14T10:04:45;98272.38;;;8.15;64.59
31088;BME280;17745;55.914;37.554;2023-03-14T10:07:15;98239.44;;;8.18;64.16
31088;BME280;17745;55.914;37.554;2023-03-14T10:09:46;98245.50;;;8.08;64.88
31088;BME280;17745;55.914;37.554;2023-03-14T10:12:17;98262.56;;;7.95;62.91
31088;BME280;17745;55.914;37.554;2023-03-14T10:14:47;98245.88;;;7.73;64.24
31088;BME280;17745;55.914;37.554;2023-03-14T10:17:16;98247.97;;;7.66;64.39
31088;BME280;17745;55.914;37.554;2023-03-14T10:19:55;98239.03;;;7.78;64.38
31088;BME280;17745;55.914;37.554;2023-03-14T10:22:25;98260.09;;;7.72;63.56
31088;BME280;17745;55.914;37.554;2023-03-14T10:24:56;98264.56;;;7.67;64.59
31088;BME280;17745;55.914;37.554;2023-03-14T10:27:31;98265.78;;;7.49;65.57
31088;BME280;17745;55.914;37.554;2023-03-14T10:30:04;98287.06;;;7.42;65.46
31088;BME280;17745;55.914;37.554;2023-03-14T10:32:34;98276.75;;;7.35;65.94
31088;BME280;17745;55.914;37.554;2023-03-14T10:35:20;98262.66;;;7.57;66.40
31088;BME280;17745;55.914;37.554;2023-03-14T10:37:51;98281.13;;;7.62;65.69
31088;BME280;17745;55.914;37.554;2023-03-14T10:40:20;98251.88;;;7.58;66.12
31088;BME280;17745;55.914;37.554;2023-03-14T10:42:51;98242.13;;;7.59;64.80
31088;BME280;17745;55.914;37.554;2023-03-14T10:45:39;98242.66;;;7.61;66.06
31088;BME280;17745;55.914;37.554;2023-03-14T10:48:20;98244.81;;;7.69;66.37
31088;BME280;17745;55.914;37.554;2023-03-14T10:50:56;98228.72;;;7.71;65.40
31088;BME280;17745;55.914;37.554;2023-03-14T10:53:24;98231.94;;;7.83;66.52
31088;BME280;17745;55.914;37.554;2023-03-14T10:55:52;98237.28;;;7.99;66.26
31088;BME280;17745;55.914;37.554;2023-03-14T10:58:24;98218.56;;;8.00;65.31
31088;BME280;17745;55.914;37.554;2023-03-14T11:00:59;98222.81;;;8.07;66.20
31088;BME280;17745;55.914;37.554;2023-03-14T11:03:31;98217.03;;;8.15;65.35
31088;BME280;17745;55.914;37.554;2023-03-14T11:06:06;98200.72;;;8.34;65.54
31088;BME280;17745;55.914;37.554;2023-03-14T11:08:43;98222.91;;;8.53;65.33
31088;BME280;17745;55.914;37.554;2023-03-14T11:11:17;98215.00;;;8.58;65.21
31088;BME280;17745;55.914;37.554;2023-03-14T11:13:57;98206.28;;;8.53;64.95
31088;BME280;17745;55.914;37.554;2023-03-14T11:16:36;98211.84;;;8.51;65.18
31088;BME280;17745;55.914;37.554;2023-03-14T11:19:38;98224.75;;;8.53;65.26
31088;BME280;17745;55.914;37.554;2023-03-14T11:22:20;98227.94;;;8.60;65.18
31088;BME280;17745;55.914;37.554;2023-03-14T11:27:48;98202.87;;;8.52;62.60
31088;BME280;17745;55.914;37.554;2023-03-14T11:30:30;98212.63;;;8.62;64.86
31088;BME280;17745;55.914;37.554;2023-03-14T11:33:14;98238.75;;;8.79;64.73
31088;BME280;17745;55.914;37.554;2023-03-14T11:35:46;98226.88;;;8.82;63.84
31088;BME280;17745;55.914;37.554;2023-03-14T11:38:24;98225.28;;;8.76;63.72
31088;BME280;17745;55.914;37.554;2023-03-14T11:41:09;98225.03;;;8.72;63.56
31088;BME280;17745;55.914;37.554;2023-03-14T11:43:41;98233.22;;;8.81;64.11
31088;BME280;17745;55.914;37.554;2023-03-14T11:46:18;98234.25;;;8.95;64.08
31088;BME280;17745;55.914;37.554;2023-03-14T11:48:59;98247.44;;;9.06;63.91
31088;BME280;17745;55.914;37.554;2023-03-14T11:51:44;98248.22;;;9.17;64.02
31088;BME280;17745;55.914;37.554;2023-03-14T11:54:20;98214.44;;;9.13;61.41
31088;BME280;17745;55.914;37.554;2023-03-14T11:56:54;98246.13;;;9.13;63.36
31088;BME280;17745;55.914;37.554;2023-03-14T11:59:28;98244.78;;;9.11;63.81
31088;BME280;17745;55.914;37.554;2023-03-14T12:02:02;98246.13;;;9.13;63.69
31088;BME280;17745;55.914;37.554;2023-03-14T12:04:42;98250.59;;;9.23;63.03
31088;BME280;17745;55.914;37.554;2023-03-14T12:07:18;98241.37;;;9.15;63.07
31088;BME280;17745;55.914;37.554;2023-03-14T12:09:48;98248.75;;;9.13;63.32
31088;BME280;17745;55.914;37.554;2023-03-14T12:12:19;98238.47;;;9.12;63.18
31088;BME280;17745;55.914;37.554;2023-03-14T12:14:54;98251.12;;;9.20;62.96
31088;BME280;17745;55.914;37.554;2023-03-14T12:17:26;98258.25;;;9.25;63.13
31088;BME280;17745;55.914;37.554;2023-03-14T12:20:03;98243.72;;;9.27;61.64
31088;BME280;17745;55.914;37.554;2023-03-14T12:22:35;98249.25;;;9.26;61.45
31088;BME280;17745;55.914;37.554;2023-03-14T12:25:12;98232.37;;;9.17;61.55
31088;BME280;17745;55.914;37.554;2023-03-14T12:27:47;98250.88;;;9.17;62.09
31088;BME280;17745;55.914;37.554;2023-03-14T12:30:34;98224.44;;;9.27;61.96
31088;BME280;17745;55.914;37.554;2023-03-14T12:33:34;98263.53;;;9.30;62.13
31088;BME280;17745;55.914;37.554;2023-03-14T12:36:21;98255.63;;;9.14;60.77
31088;BME280;17745;55.914;37.554;2023-03-14T12:39:17;98259.84;;;9.00;61.44
31088;BME280;17745;55.914;37.554;2023-03-14T12:41:52;98256.16;;;9.01;62.58
31088;BME280;17745;55.914;37.554;2023-03-14T12:44:40;98268.81;;;9.04;61.91
31088;BME280;17745;55.914;37.554;2023-03-14T12:50:24;98257.75;;;8.97;60.42
31088;BME280;17745;55.914;37.554;2023-03-14T12:53:03;98236.12;;;8.74;60.67
31088;BME280;17745;55.914;37.554;2023-03-14T12:55:36;98234.53;;;8.78;61.27
31088;BME280;17745;55.914;37.554;2023-03-14T12:58:12;98240.59;;;8.84;61.74
31088;BME280;17745;55.914;37.554;2023-03-14T13:00:43;98246.66;;;9.00;60.91
31088;BME280;17745;55.914;37.554;2023-03-14T13:03:21;98252.72;;;8.95;60.25
31088;BME280;17745;55.914;37.554;2023-03-14T13:06:00;98236.38;;;9.04;59.63
31088;BME280;17745;55.914;37.554;2023-03-14T13:08:36;98249.31;;;9.10;60.83
31088;BME280;17745;55.914;37.554;2023-03-14T13:11:09;98247.44;;;9.16;61.34
31088;BME280;17745;55.914;37.554;2023-03-14T13:13:44;98237.16;;;9.14;60.86
31088;BME280;17745;55.914;37.554;2023-03-14T13:16:17;98246.13;;;9.03;59.14
31088;BME280;17745;55.914;37.554;2023-03-14T13:18:47;98247.97;;;8.97;59.88
31088;BME280;17745;55.914;37.554;2023-03-14T13:21:18;98242.69;;;8.92;60.33
31088;BME280;17745;55.914;37.554;2023-03-14T13:23:56;98256.19;;;8.91;59.68
31088;BME280;17745;55.914;37.554;2023-03-14T13:26:31;98268.06;;;8.83;58.68
31088;BME280;17745;55.914;37.554;2023-03-14T13:29:11;98272.53;;;8.87;58.94